x

San Francisco - 18nm West Of San Francisco, Ca (46026) Wave Buoy

8:50pm - Fri 22nd May 2015 All times are PDT. -7 hours from GMT.

  • Sig Wave height 3.9ft
  • Swell Direction
  • Peak Period 11s
  • Average Period 5s
  • Wind
    13mph, 16mph gusts
  • Sea Temp 54°f
  • Air Temp 55°f
  • Sea Pressure 1018.3mb
  • San Francisco - 18nm West Of San Francisco, Ca
  • San Francisco - 18nm West Of San Francisco, Ca

More Historic Weather Station data

Upgrade to MSW Pro to gain access to the past 30 days of data for over 8000 Wavebouys and Weather Stations around the globe.

Join Pro

Comparision Forecast

View Surf forecast
   
Fri 05/22 8:50pm 4ft 11s 5s 13 16 mph 1018.3mb 54f 55f
7:50pm 4ft 11s 6s 13 20 mph 1017.8mb 54f 55f
6:50pm 3.5ft 11s 6s 16 18 mph 1017.6mb 54f 55f
5:50pm 3.5ft 11s 6s 13 16 mph 1017.6mb 54f 56f
4:50pm 4ft 11s 7s 13 16 mph 1017.5mb 54f 55f
3:50pm 3.5ft 10s 7s 16 18 mph 1017.3mb 55f 55f
2:50pm 4ft 11s 7s 9 11 mph 1017.5mb 55f 55f
1:50pm 3.5ft 11s 7s 11 13 mph 1017.5mb 55f 55f
12:50pm 3.5ft 10s 8s 11 13 mph 1017.6mb 54f 55f
11:50am 3.5ft 10s 7s 7 9 mph 1017.7mb 54f 55f
10:50am 3.5ft 11s 8s 7 9 mph 1017.5mb 54f 55f
9:50am 3.5ft 11s 8s 7 9 mph 1017.5mb 54f 55f
8:50am 3.5ft 11s 8s 7 9 mph 1017.2mb 54f 54f
7:50am 3.5ft 11s 8s 9 11 mph 1016.8mb 54f 54f
6:50am 3.5ft 11s 8s 7 9 mph 1016.4mb 54f 55f
5:50am 3ft 12s 8s 7
mph
1016mb 54f 55f
4:50am 3ft 11s 8s 7
mph
1015.9mb 54f 55f
3:50am 3.5ft 12s 8s 4 7 mph 1015.7mb 55f 55f
2:50am 3.5ft 12s 8s 7
mph
1015.8mb 55f 55f
1:50am 3.5ft 11s 8s 9
mph
1015.7mb 55f 55f
12:50am 3.5ft 13s 8s 7 9 mph 1015.8mb 55f 55f
Thu 05/21 11:50pm 3.5ft 12s 8s 7 9 mph 1015.6mb 55f 55f
10:50pm 4ft 12s 8s 7 9 mph 1015.7mb 55f 55f
9:50pm 4ft 12s 8s 9 11 mph 1015.5mb 56f 56f
8:50pm 4ft 13s 8s 7 9 mph 1015.1mb 56f 56f
7:50pm 4.5ft 13s 8s 7 9 mph 1014.9mb 56f 56f
6:50pm 3.5ft 12s 8s 7 9 mph 1014.7mb 57f 56f
5:50pm 3.5ft 12s 8s 4 7 mph 1014.6mb 57f 56f
4:50pm 3.5ft 13s 8s 7
mph
1014.5mb 57f 56f
3:50pm 3.5ft 12s 8s 7 9 mph 1014.8mb 57f 55f
2:50pm 3.5ft 13s 7s 9
mph
1015mb 56f 55f
1:50pm 3.5ft 13s 7s 7
mph
1015.1mb 56f 55f
12:50pm 3.5ft 13s 8s 7
mph
1015.2mb 55f 55f
11:50am 3.5ft 13s 7s 2 4 mph 1015.3mb 55f 54f
10:50am 3ft 13s 7s 2 4 mph 1014.9mb 54f 54f
9:50am 3.5ft 14s 7s  -  2 mph 1015mb 54f 53f
8:50am 3.5ft 14s 7s 4
mph
1014.8mb 53f 54f
7:50am 3.5ft 14s 7s 4 7 mph 1014.8mb 53f 53f
6:50am 3.5ft 14s 7s 4
mph
1014.6mb 53f 53f
5:50am 3ft 14s 7s 4 7 mph 1014.2mb 53f 53f
4:50am 3.5ft 14s 7s 7 9 mph 1014.2mb 53f 53f
3:50am 3ft 14s 7s 4
mph
1014.1mb 53f 53f
2:50am 3.5ft 14s 7s 7 9 mph 1014.1mb 53f 53f
1:50am 3ft 15s 6s 7 9 mph 1014.4mb 53f 54f
12:50am 3.5ft 15s 7s 7
mph
1014.7mb 53f 54f
Wed 05/20 11:50pm 3.5ft 15s 7s 9
mph
1015mb 53f 54f
10:50pm 3.5ft 15s 7s 9
mph
1015.2mb 54f 54f
9:50pm 3.5ft 15s 6s 9 11 mph 1015.1mb 54f 54f
8:50pm 4ft 10s 6s 11 13 mph 1014.9mb 54f 54f
7:50pm 3.5ft 11s 6s 11
mph
1014.6mb 54f 54f
6:50pm 3.5ft 11s 6s 11
mph
1014.4mb 54f 54f
5:50pm 4ft 11s 6s 9 11 mph 1014.7mb 54f 54f
4:50pm 4.5ft 15s 7s 11 13 mph 1014.8mb 54f 54f
3:50pm 4ft 11s 6s 11 13 mph 1015.1mb 54f 54f
2:50pm 4ft 11s 6s 9 11 mph 1015.3mb 54f 54f
1:50pm 4.5ft 11s 6s 7 9 mph 1015.6mb 54f 54f
12:50pm 4.5ft 10s 6s 9 11 mph 1016mb 54f 54f
11:50am 4.5ft 7s 6s 9 11 mph 1016.1mb 53f 53f
10:50am 4.5ft 11s 7s 9 11 mph 1015.9mb 53f 53f
9:50am 4.5ft 11s 6s 9 11 mph 1015.6mb 53f 53f
8:50am 4.5ft 11s 6s 9 11 mph 1015.4mb 53f 52f
7:50am 4.5ft 11s 6s 9 11 mph 1015.1mb 53f 51f
6:50am 4.5ft 11s 6s 9 11 mph 1014.8mb 53f 51f
5:50am 4.5ft 11s 6s 9 11 mph 1014.6mb 53f 52f
4:50am 4.5ft 11s 6s 9
mph
1014.6mb 53f 53f
3:50am 4.5ft 11s 6s 9 11 mph 1015mb 53f 53f
2:50am 5ft 11s 6s 9
mph
1015.2mb 53f 53f
1:50am 5ft 11s 6s 11 13 mph 1015.4mb 53f 54f
12:50am 5ft 12s 6s 13 20 mph 1015.8mb 53f 54f
Tue 05/19 11:50pm 5ft 11s 6s 16 20 mph 1016.3mb 54f 54f
10:50pm 4.5ft 11s 6s 13 16 mph 1016.7mb 54f 54f
9:50pm 4.5ft 11s 6s 13 16 mph 1016.9mb 54f 54f
8:50pm 4.5ft 11s 6s 13 16 mph 1016.7mb 54f 54f
7:50pm 5ft 11s 7s 13 16 mph 1016.8mb 54f 55f
6:50pm 5ft 11s 6s 13 16 mph 1017mb 54f 55f
5:50pm 4.5ft 12s 6s 13 18 mph 1017.3mb 54f 55f
4:50pm 5ft 12s 7s 13 16 mph 1017.8mb 54f 55f
3:50pm 4.5ft 12s 7s 11 13 mph 1018.3mb 54f 54f
2:50pm 5ft 12s 7s 11 16 mph 1018.9mb 54f 54f
1:50pm 5ft 12s 7s 9 11 mph 1019.4mb 54f 54f
12:50pm 5ft 12s 7s 9
mph
1019.6mb 53f 53f
11:50am 5ft 12s 6s 7 9 mph 1020mb 53f 53f
10:50am 5ft 13s 7s 13 18 mph 1019.8mb 52f 54f
9:50am 5ft 12s 6s 11 13 mph 1020.1mb 52f 53f
8:50am 5.5ft 11s 6s 11 16 mph 1019.8mb 52f 53f
7:50am 5ft 12s 6s 13 16 mph 1019.8mb 52f 53f
6:50am 5.5ft 13s 7s 16 22 mph 1019.5mb 52f 53f
5:50am 4.5ft 13s 7s 16 18 mph 1019mb 52f 54f